sensor_id;sensor_type;location;lat;lon;timestamp;temperature;humidity
7814;DHT22;3952;48.364;16.022;2022-12-13T00:01:13;-2.30;99.90
7814;DHT22;3952;48.364;16.022;2022-12-13T00:03:40;-2.30;99.90
7814;DHT22;3952;48.364;16.022;2022-12-13T00:06:10;-2.30;99.90
7814;DHT22;3952;48.364;16.022;2022-12-13T00:08:38;-2.40;99.90
7814;DHT22;3952;48.364;16.022;2022-12-13T00:11:09;-2.40;99.90
7814;DHT22;3952;48.364;16.022;2022-12-13T00:13:37;-2.40;99.90
7814;DHT22;3952;48.364;16.022;2022-12-13T00:16:07;-2.40;99.90
7814;DHT22;3952;48.364;16.022;2022-12-13T00:18:35;-2.40;99.90
7814;DHT22;3952;48.364;16.022;2022-12-13T00:21:04;-2.40;99.90
7814;DHT22;3952;48.364;16.022;2022-12-13T00:23:33;-2.30;99.90
7814;DHT22;3952;48.364;16.022;2022-12-13T00:26:04;-2.30;99.90
7814;DHT22;3952;48.364;16.022;2022-12-13T00:28:32;-2.20;99.90
7814;DHT22;3952;48.364;16.022;2022-12-13T00:31:00;-2.30;99.90
7814;DHT22;3952;48.364;16.022;2022-12-13T00:33:28;-2.30;99.90
7814;DHT22;3952;48.364;16.022;2022-12-13T00:35:56;-2.30;99.90
7814;DHT22;3952;48.364;16.022;2022-12-13T00:38:24;-2.40;99.90
7814;DHT22;3952;48.364;16.022;2022-12-13T00:40:53;-2.40;99.90
7814;DHT22;3952;48.364;16.022;2022-12-13T00:43:20;-2.50;99.90
7814;DHT22;3952;48.364;16.022;2022-12-13T00:45:47;-2.60;99.90
7814;DHT22;3952;48.364;16.022;2022-12-13T00:48:14;-2.80;99.90
7814;DHT22;3952;48.364;16.022;2022-12-13T00:50:41;-2.90;99.90
7814;DHT22;3952;48.364;16.022;2022-12-13T00:53:09;-2.90;99.90
7814;DHT22;3952;48.364;16.022;2022-12-13T00:55:39;-2.20;99.90
7814;DHT22;3952;48.364;16.022;2022-12-13T00:58:08;-3.10;99.90
7814;DHT22;3952;48.364;16.022;2022-12-13T01:00:35;-3.10;99.90
7814;DHT22;3952;48.364;16.022;2022-12-13T01:03:02;-3.10;99.90
7814;DHT22;3952;48.364;16.022;2022-12-13T01:05:45;-3.20;99.90
7814;DHT22;3952;48.364;16.022;2022-12-13T01:08:12;-3.10;99.90
7814;DHT22;3952;48.364;16.022;2022-12-13T01:10:42;-3.10;99.90
7814;DHT22;3952;48.364;16.022;2022-12-13T01:13:11;-3.10;99.90
7814;DHT22;3952;48.364;16.022;2022-12-13T01:15:40;-3.20;99.90
7814;DHT22;3952;48.364;16.022;2022-12-13T01:18:08;-3.20;99.90
7814;DHT22;3952;48.364;16.022;2022-12-13T01:20:36;-3.20;99.90
7814;DHT22;3952;48.364;16.022;2022-12-13T01:23:04;-3.30;99.90
7814;DHT22;3952;48.364;16.022;2022-12-13T01:25:31;-3.30;99.90
7814;DHT22;3952;48.364;16.022;2022-12-13T01:27:59;-3.30;99.90
7814;DHT22;3952;48.364;16.022;2022-12-13T01:30:27;-3.40;99.90
7814;DHT22;3952;48.364;16.022;2022-12-13T01:32:55;-3.40;99.90
7814;DHT22;3952;48.364;16.022;2022-12-13T01:35:22;-3.40;99.90
7814;DHT22;3952;48.364;16.022;2022-12-13T01:37:49;-3.40;99.90
7814;DHT22;3952;48.364;16.022;2022-12-13T01:40:16;-3.40;99.90
7814;DHT22;3952;48.364;16.022;2022-12-13T01:42:43;-3.40;99.90
7814;DHT22;3952;48.364;16.022;2022-12-13T01:45:21;-3.40;99.90
7814;DHT22;3952;48.364;16.022;2022-12-13T01:47:54;-3.40;99.90
7814;DHT22;3952;48.364;16.022;2022-12-13T01:50:26;-3.40;99.90
7814;DHT22;3952;48.364;16.022;2022-12-13T01:52:54;-3.40;99.90
7814;DHT22;3952;48.364;16.022;2022-12-13T01:55:23;-3.40;99.90
7814;DHT22;3952;48.364;16.022;2022-12-13T01:57:52;-3.40;99.90
7814;DHT22;3952;48.364;16.022;2022-12-13T02:00:21;-3.40;99.90
7814;DHT22;3952;48.364;16.022;2022-12-13T02:02:49;-3.50;99.90
7814;DHT22;3952;48.364;16.022;2022-12-13T02:05:23;-3.50;99.90
7814;DHT22;3952;48.364;16.022;2022-12-13T02:07:52;-3.50;99.90
7814;DHT22;3952;48.364;16.022;2022-12-13T02:10:35;-3.50;99.90
7814;DHT22;3952;48.364;16.022;2022-12-13T02:13:02;-3.50;99.90
7814;DHT22;3952;48.364;16.022;2022-12-13T02:15:35;-3.50;99.90
7814;DHT22;3952;48.364;16.022;2022-12-13T02:18:24;-3.50;99.90
7814;DHT22;3952;48.364;16.022;2022-12-13T02:21:17;-3.60;99.90
7814;DHT22;3952;48.364;16.022;2022-12-13T02:24:12;-3.60;99.90
7814;DHT22;3952;48.364;16.022;2022-12-13T02:27:03;-3.70;99.90
7814;DHT22;3952;48.364;16.022;2022-12-13T02:29:55;-3.70;99.90
7814;DHT22;3952;48.364;16.022;2022-12-13T02:32:33;-3.80;99.90
7814;DHT22;3952;48.364;16.022;2022-12-13T02:35:04;-3.70;99.90
7814;DHT22;3952;48.364;16.022;2022-12-13T02:37:45;-3.80;99.90
7814;DHT22;3952;48.364;16.022;2022-12-13T02:40:19;-3.90;99.90
7814;DHT22;3952;48.364;16.022;2022-12-13T02:42:56;-4.00;99.90
7814;DHT22;3952;48.364;16.022;2022-12-13T02:45:29;-4.00;99.90
7814;DHT22;3952;48.364;16.022;2022-12-13T02:48:00;-4.10;99.90
7814;DHT22;3952;48.364;16.022;2022-12-13T02:50:28;-4.10;99.90
7814;DHT22;3952;48.364;16.022;2022-12-13T02:52:57;-4.10;99.90
7814;DHT22;3952;48.364;16.022;2022-12-13T02:55:26;-4.20;99.90
7814;DHT22;3952;48.364;16.022;2022-12-13T02:57:53;-4.10;99.90
7814;DHT22;3952;48.364;16.022;2022-12-13T03:00:23;-4.20;99.90
7814;DHT22;3952;48.364;16.022;2022-12-13T03:03:08;-4.20;99.90
7814;DHT22;3952;48.364;16.022;2022-12-13T03:05:45;-4.20;99.90
7814;DHT22;3952;48.364;16.022;2022-12-13T03:08:41;-4.30;99.90
7814;DHT22;3952;48.364;16.022;2022-12-13T03:11:14;-4.30;99.90
7814;DHT22;3952;48.364;16.022;2022-12-13T03:13:48;-4.30;99.90
7814;DHT22;3952;48.364;16.022;2022-12-13T03:16:25;-4.30;99.90
7814;DHT22;3952;48.364;16.022;2022-12-13T03:18:58;-4.40;99.90
7814;DHT22;3952;48.364;16.022;2022-12-13T03:21:25;-4.40;99.90
7814;DHT22;3952;48.364;16.022;2022-12-13T03:23:53;-4.40;99.90
7814;DHT22;3952;48.364;16.022;2022-12-13T03:26:21;-4.50;99.90
7814;DHT22;3952;48.364;16.022;2022-12-13T03:28:51;-4.40;99.90
7814;DHT22;3952;48.364;16.022;2022-12-13T03:31:18;-4.50;99.90
7814;DHT22;3952;48.364;16.022;2022-12-13T03:33:46;-4.50;99.90
7814;DHT22;3952;48.364;16.022;2022-12-13T03:36:15;-4.50;99.90
7814;DHT22;3952;48.364;16.022;2022-12-13T03:38:44;-4.50;99.90
7814;DHT22;3952;48.364;16.022;2022-12-13T03:41:13;-4.50;99.90
7814;DHT22;3952;48.364;16.022;2022-12-13T03:43:41;-4.60;99.90
7814;DHT22;3952;48.364;16.022;2022-12-13T03:46:09;-4.50;99.90
7814;DHT22;3952;48.364;16.022;2022-12-13T03:48:36;-4.60;99.90
7814;DHT22;3952;48.364;16.022;2022-12-13T03:51:04;-4.70;99.90
7814;DHT22;3952;48.364;16.022;2022-12-13T03:53:33;-4.20;99.90
7814;DHT22;3952;48.364;16.022;2022-12-13T03:56:01;-4.70;99.90
7814;DHT22;3952;48.364;16.022;2022-12-13T03:58:29;-4.70;99.90
7814;DHT22;3952;48.364;16.022;2022-12-13T04:00:56;-4.20;99.90
7814;DHT22;3952;48.364;16.022;2022-12-13T04:03:24;-4.80;99.90
7814;DHT22;3952;48.364;16.022;2022-12-13T04:05:51;-4.80;99.90
7814;DHT22;3952;48.364;16.022;2022-12-13T04:08:18;-4.80;99.90
7814;DHT22;3952;48.364;16.022;2022-12-13T04:10:47;-4.80;99.90
7814;DHT22;3952;48.364;16.022;2022-12-13T04:13:14;-4.90;99.90
7814;DHT22;3952;48.364;16.022;2022-12-13T04:15:59;-4.90;99.90
7814;DHT22;3952;48.364;16.022;2022-12-13T04:18:27;-4.90;99.90
7814;DHT22;3952;48.364;16.022;2022-12-13T04:20:54;-4.90;99.90
7814;DHT22;3952;48.364;16.022;2022-12-13T04:23:22;-4.90;99.90
7814;DHT22;3952;48.364;16.022;2022-12-13T04:25:50;-5.00;99.90
7814;DHT22;3952;48.364;16.022;2022-12-13T04:28:18;-5.10;99.90
7814;DHT22;3952;48.364;16.022;2022-12-13T04:30:45;-5.10;99.90
7814;DHT22;3952;48.364;16.022;2022-12-13T04:33:12;-5.10;99.90
7814;DHT22;3952;48.364;16.022;2022-12-13T04:35:39;-5.20;99.90
7814;DHT22;3952;48.364;16.022;2022-12-13T04:38:06;-5.20;99.90
7814;DHT22;3952;48.364;16.022;2022-12-13T04:40:34;-5.20;99.90
7814;DHT22;3952;48.364;16.022;2022-12-13T04:43:03;-5.20;99.90
7814;DHT22;3952;48.364;16.022;2022-12-13T04:45:30;-5.20;99.90
7814;DHT22;3952;48.364;16.022;2022-12-13T04:47:57;-5.20;99.90
7814;DHT22;3952;48.364;16.022;2022-12-13T04:50:24;-5.20;99.90
7814;DHT22;3952;48.364;16.022;2022-12-13T04:52:51;-5.20;99.90
7814;DHT22;3952;48.364;16.022;2022-12-13T04:55:19;-5.20;99.90
7814;DHT22;3952;48.364;16.022;2022-12-13T04:57:46;-5.20;99.90
7814;DHT22;3952;48.364;16.022;2022-12-13T05:00:15;-5.10;99.90
7814;DHT22;3952;48.364;16.022;2022-12-13T05:02:43;-5.10;99.90
7814;DHT22;3952;48.364;16.022;2022-12-13T05:05:10;-5.10;99.90
7814;DHT22;3952;48.364;16.022;2022-12-13T05:07:38;-5.10;99.90
7814;DHT22;3952;48.364;16.022;2022-12-13T05:10:06;-5.10;99.90
7814;DHT22;3952;48.364;16.022;2022-12-13T05:12:33;-5.10;99.90
7814;DHT22;3952;48.364;16.022;2022-12-13T05:15:00;-5.10;99.90
7814;DHT22;3952;48.364;16.022;2022-12-13T05:17:29;-5.10;99.90
7814;DHT22;3952;48.364;16.022;2022-12-13T05:19:56;-5.20;99.90
7814;DHT22;3952;48.364;16.022;2022-12-13T05:22:24;-5.20;99.90
7814;DHT22;3952;48.364;16.022;2022-12-13T05:24:51;-5.20;99.90
7814;DHT22;3952;48.364;16.022;2022-12-13T05:27:18;-5.30;99.90
7814;DHT22;3952;48.364;16.022;2022-12-13T05:29:46;-5.30;99.90
7814;DHT22;3952;48.364;16.022;2022-12-13T05:32:13;-5.40;99.90
7814;DHT22;3952;48.364;16.022;2022-12-13T05:34:42;-5.50;99.90
7814;DHT22;3952;48.364;16.022;2022-12-13T05:37:09;-5.40;99.90
7814;DHT22;3952;48.364;16.022;2022-12-13T05:39:36;-5.50;99.90
7814;DHT22;3952;48.364;16.022;2022-12-13T05:42:03;-5.50;99.90
7814;DHT22;3952;48.364;16.022;2022-12-13T05:44:31;-5.50;99.90
7814;DHT22;3952;48.364;16.022;2022-12-13T05:46:58;-5.50;99.90
7814;DHT22;3952;48.364;16.022;2022-12-13T05:49:26;-5.50;99.90
7814;DHT22;3952;48.364;16.022;2022-12-13T05:51:55;-5.50;99.90
7814;DHT22;3952;48.364;16.022;2022-12-13T05:54:22;-5.50;99.90
7814;DHT22;3952;48.364;16.022;2022-12-13T05:56:49;-5.50;99.90
7814;DHT22;3952;48.364;16.022;2022-12-13T05:59:17;-5.50;99.90
7814;DHT22;3952;48.364;16.022;2022-12-13T06:01:44;-5.50;99.90
7814;DHT22;3952;48.364;16.022;2022-12-13T06:04:11;-5.50;99.90
7814;DHT22;3952;48.364;16.022;2022-12-13T06:06:39;-5.50;99.90
7814;DHT22;3952;48.364;16.022;2022-12-13T06:09:07;-5.50;99.90
7814;DHT22;3952;48.364;16.022;2022-12-13T06:11:35;-5.50;99.90
7814;DHT22;3952;48.364;16.022;2022-12-13T06:14:02;-5.50;99.90
7814;DHT22;3952;48.364;16.022;2022-12-13T06:16:29;-5.50;99.90
7814;DHT22;3952;48.364;16.022;2022-12-13T06:18:57;-5.50;99.90
7814;DHT22;3952;48.364;16.022;2022-12-13T06:21:24;-5.60;99.90
7814;DHT22;3952;48.364;16.022;2022-12-13T06:23:51;-5.60;99.90
7814;DHT22;3952;48.364;16.022;2022-12-13T06:26:20;-5.60;99.90
7814;DHT22;3952;48.364;16.022;2022-12-13T06:28:47;-5.60;99.90
7814;DHT22;3952;48.364;16.022;2022-12-13T06:31:23;-5.60;99.90
7814;DHT22;3952;48.364;16.022;2022-12-13T06:33:50;-5.60;99.90
7814;DHT22;3952;48.364;16.022;2022-12-13T06:36:18;-5.60;99.90
7814;DHT22;3952;48.364;16.022;2022-12-13T06:38:45;-5.70;99.90
7814;DHT22;3952;48.364;16.022;2022-12-13T06:41:14;-5.70;99.90
7814;DHT22;3952;48.364;16.022;2022-12-13T06:43:45;-5.60;99.90
7814;DHT22;3952;48.364;16.022;2022-12-13T06:46:13;-5.60;99.90
7814;DHT22;3952;48.364;16.022;2022-12-13T06:48:40;-5.60;99.90
7814;DHT22;3952;48.364;16.022;2022-12-13T06:51:08;-5.60;99.90
7814;DHT22;3952;48.364;16.022;2022-12-13T06:53:37;-5.60;99.90
7814;DHT22;3952;48.364;16.022;2022-12-13T06:56:06;-5.50;99.90
7814;DHT22;3952;48.364;16.022;2022-12-13T06:58:34;-5.50;99.90
7814;DHT22;3952;48.364;16.022;2022-12-13T07:01:03;-5.40;99.90
7814;DHT22;3952;48.364;16.022;2022-12-13T07:03:31;-5.40;99.90
7814;DHT22;3952;48.364;16.022;2022-12-13T07:05:59;-5.40;99.90
7814;DHT22;3952;48.364;16.022;2022-12-13T07:08:29;-5.40;99.90
7814;DHT22;3952;48.364;16.022;2022-12-13T07:10:57;-5.40;99.90
7814;DHT22;3952;48.364;16.022;2022-12-13T07:13:24;-5.40;99.90
7814;DHT22;3952;48.364;16.022;2022-12-13T07:15:52;-5.40;99.90
7814;DHT22;3952;48.364;16.022;2022-12-13T07:18:20;-5.40;99.90
7814;DHT22;3952;48.364;16.022;2022-12-13T07:20:47;-5.40;99.90
7814;DHT22;3952;48.364;16.022;2022-12-13T07:23:14;-5.30;99.90
7814;DHT22;3952;48.364;16.022;2022-12-13T07:25:42;-5.20;99.90
7814;DHT22;3952;48.364;16.022;2022-12-13T07:28:16;-5.20;99.90
7814;DHT22;3952;48.364;16.022;2022-12-13T07:30:43;-5.10;99.90
7814;DHT22;3952;48.364;16.022;2022-12-13T07:33:11;-5.00;99.90
7814;DHT22;3952;48.364;16.022;2022-12-13T07:35:40;-4.90;99.90
7814;DHT22;3952;48.364;16.022;2022-12-13T07:38:08;-4.70;99.90
7814;DHT22;3952;48.364;16.022;2022-12-13T07:40:37;-4.50;99.90
7814;DHT22;3952;48.364;16.022;2022-12-13T07:43:05;-4.20;99.90
7814;DHT22;3952;48.364;16.022;2022-12-13T07:45:33;-3.70;99.90
7814;DHT22;3952;48.364;16.022;2022-12-13T07:48:03;-3.30;99.90
7814;DHT22;3952;48.364;16.022;2022-12-13T07:50:31;-2.80;99.90
7814;DHT22;3952;48.364;16.022;2022-12-13T07:53:03;-2.20;99.90
7814;DHT22;3952;48.364;16.022;2022-12-13T07:55:31;-1.70;99.90
7814;DHT22;3952;48.364;16.022;2022-12-13T07:58:05;-1.40;99.90
7814;DHT22;3952;48.364;16.022;2022-12-13T08:00:33;-1.00;99.90
7814;DHT22;3952;48.364;16.022;2022-12-13T08:03:00;-0.90;99.90
7814;DHT22;3952;48.364;16.022;2022-12-13T08:05:27;-0.90;99.90
7814;DHT22;3952;48.364;16.022;2022-12-13T08:07:54;-0.70;99.90
7814;DHT22;3952;48.364;16.022;2022-12-13T08:10:23;-0.50;99.90
7814;DHT22;3952;48.364;16.022;2022-12-13T08:12:50;-0.30;99.90
7814;DHT22;3952;48.364;16.022;2022-12-13T08:15:18;-0.20;99.90
7814;DHT22;3952;48.364;16.022;2022-12-13T08:17:46;-0.20;99.90
7814;DHT22;3952;48.364;16.022;2022-12-13T08:20:13;-0.20;99.90
7814;DHT22;3952;48.364;16.022;2022-12-13T08:22:42;0.00;99.90
7814;DHT22;3952;48.364;16.022;2022-12-13T08:25:11;0.00;99.90
7814;DHT22;3952;48.364;16.022;2022-12-13T08:27:40;0.30;99.90
7814;DHT22;3952;48.364;16.022;2022-12-13T08:30:08;0.70;99.90
7814;DHT22;3952;48.364;16.022;2022-12-13T08:32:35;1.00;99.90
7814;DHT22;3952;48.364;16.022;2022-12-13T08:35:03;1.20;99.90
7814;DHT22;3952;48.364;16.022;2022-12-13T08:37:30;1.50;99.90
7814;DHT22;3952;48.364;16.022;2022-12-13T08:39:58;1.90;99.90
7814;DHT22;3952;48.364;16.022;2022-12-13T08:42:25;2.30;99.90
7814;DHT22;3952;48.364;16.022;2022-12-13T08:44:53;2.40;99.90
7814;DHT22;3952;48.364;16.022;2022-12-13T08:47:23;2.60;99.90
7814;DHT22;3952;48.364;16.022;2022-12-13T08:49:52;2.70;99.90
7814;DHT22;3952;48.364;16.022;2022-12-13T08:52:20;2.60;99.90
7814;DHT22;3952;48.364;16.022;2022-12-13T08:54:48;2.60;99.90
7814;DHT22;3952;48.364;16.022;2022-12-13T08:57:15;3.00;99.90
7814;DHT22;3952;48.364;16.022;2022-12-13T08:59:43;3.20;99.90
7814;DHT22;3952;48.364;16.022;2022-12-13T09:02:12;3.10;99.90
7814;DHT22;3952;48.364;16.022;2022-12-13T09:04:40;3.50;99.90
7814;DHT22;3952;48.364;16.022;2022-12-13T09:07:07;3.80;99.90
7814;DHT22;3952;48.364;16.022;2022-12-13T09:09:35;4.10;99.90
7814;DHT22;3952;48.364;16.022;2022-12-13T09:12:02;4.20;99.90
7814;DHT22;3952;48.364;16.022;2022-12-13T09:14:29;3.90;99.90
7814;DHT22;3952;48.364;16.022;2022-12-13T09:16:57;3.50;99.90
7814;DHT22;3952;48.364;16.022;2022-12-13T09:19:26;3.20;99.90
7814;DHT22;3952;48.364;16.022;2022-12-13T09:21:53;3.30;99.90
7814;DHT22;3952;48.364;16.022;2022-12-13T09:24:20;3.20;99.90
7814;DHT22;3952;48.364;16.022;2022-12-13T09:26:47;3.20;99.90
7814;DHT22;3952;48.364;16.022;2022-12-13T09:29:15;3.50;99.90
7814;DHT22;3952;48.364;16.022;2022-12-13T09:31:42;3.70;99.90
7814;DHT22;3952;48.364;16.022;2022-12-13T09:34:09;3.50;99.90
7814;DHT22;3952;48.364;16.022;2022-12-13T09:36:38;3.50;99.90
7814;DHT22;3952;48.364;16.022;2022-12-13T09:39:07;3.20;99.90
7814;DHT22;3952;48.364;16.022;2022-12-13T09:41:39;3.20;99.90
7814;DHT22;3952;48.364;16.022;2022-12-13T09:44:14;3.00;99.90
7814;DHT22;3952;48.364;16.022;2022-12-13T09:46:44;2.90;99.90
7814;DHT22;3952;48.364;16.022;2022-12-13T09:49:16;2.80;99.90
7814;DHT22;3952;48.364;16.022;2022-12-13T09:51:49;2.90;99.90
7814;DHT22;3952;48.364;16.022;2022-12-13T09:54:19;2.80;99.90
7814;DHT22;3952;48.364;16.022;2022-12-13T09:56:47;3.00;99.90
7814;DHT22;3952;48.364;16.022;2022-12-13T09:59:16;2.60;99.90
7814;DHT22;3952;48.364;16.022;2022-12-13T10:01:44;2.00;99.90
7814;DHT22;3952;48.364;16.022;2022-12-13T10:04:12;1.90;99.90
7814;DHT22;3952;48.364;16.022;2022-12-13T10:06:40;1.80;99.90
7814;DHT22;3952;48.364;16.022;2022-12-13T10:09:12;1.90;99.90
7814;DHT22;3952;48.364;16.022;2022-12-13T10:11:46;1.90;99.90
7814;DHT22;3952;48.364;16.022;2022-12-13T10:14:19;2.10;99.90
7814;DHT22;3952;48.364;16.022;2022-12-13T10:16:50;2.30;99.90
7814;DHT22;3952;48.364;16.022;2022-12-13T10:19:22;2.40;99.90
7814;DHT22;3952;48.364;16.022;2022-12-13T10:21:50;2.30;99.90
7814;DHT22;3952;48.364;16.022;2022-12-13T10:24:20;2.10;99.90
7814;DHT22;3952;48.364;16.022;2022-12-13T10:26:50;2.00;99.90
7814;DHT22;3952;48.364;16.022;2022-12-13T10:29:18;2.10;99.90
7814;DHT22;3952;48.364;16.022;2022-12-13T10:31:47;2.30;99.90
7814;DHT22;3952;48.364;16.022;2022-12-13T10:34:22;2.20;99.90
7814;DHT22;3952;48.364;16.022;2022-12-13T10:36:50;2.20;99.90
7814;DHT22;3952;48.364;16.022;2022-12-13T10:39:35;2.10;99.90
7814;DHT22;3952;48.364;16.022;2022-12-13T10:42:04;2.10;99.90
7814;DHT22;3952;48.364;16.022;2022-12-13T10:44:32;2.00;99.90
7814;DHT22;3952;48.364;16.022;2022-12-13T10:47:03;2.00;99.90
7814;DHT22;3952;48.364;16.022;2022-12-13T10:49:37;1.70;99.90
7814;DHT22;3952;48.364;16.022;2022-12-13T10:52:17;1.50;99.90
7814;DHT22;3952;48.364;16.022;2022-12-13T10:54:48;1.00;99.90
7814;DHT22;3952;48.364;16.022;2022-12-13T10:57:17;0.80;99.90
7814;DHT22;3952;48.364;16.022;2022-12-13T10:59:47;0.80;99.90
7814;DHT22;3952;48.364;16.022;2022-12-13T11:02:29;0.80;99.90
7814;DHT22;3952;48.364;16.022;2022-12-13T11:04:57;0.80;99.90
7814;DHT22;3952;48.364;16.022;2022-12-13T11:07:27;0.70;99.90
7814;DHT22;3952;48.364;16.022;2022-12-13T11:09:57;0.60;99.90
7814;DHT22;3952;48.364;16.022;2022-12-13T11:12:26;0.70;99.90
7814;DHT22;3952;48.364;16.022;2022-12-13T11:14:55;0.70;99.90
7814;DHT22;3952;48.364;16.022;2022-12-13T11:17:25;0.70;99.90
7814;DHT22;3952;48.364;16.022;2022-12-13T11:19:54;0.80;99.90
7814;DHT22;3952;48.364;16.022;2022-12-13T11:22:25;0.80;99.90
7814;DHT22;3952;48.364;16.022;2022-12-13T11:25:00;0.80;99.90
7814;DHT22;3952;48.364;16.022;2022-12-13T11:27:52;0.70;99.90
7814;DHT22;3952;48.364;16.022;2022-12-13T11:30:26;0.70;99.90
7814;DHT22;3952;48.364;16.022;2022-12-13T11:33:16;0.70;99.90
7814;DHT22;3952;48.364;16.022;2022-12-13T11:35:57;0.80;99.90
7814;DHT22;3952;48.364;16.022;2022-12-13T11:38:29;0.80;99.90
7814;DHT22;3952;48.364;16.022;2022-12-13T11:41:02;0.90;99.90
7814;DHT22;3952;48.364;16.022;2022-12-13T11:43:40;0.80;99.90
7814;DHT22;3952;48.364;16.022;2022-12-13T11:46:11;0.80;99.90
7814;DHT22;3952;48.364;16.022;2022-12-13T11:48:43;0.80;99.90
7814;DHT22;3952;48.364;16.022;2022-12-13T11:51:16;0.80;99.90
7814;DHT22;3952;48.364;16.022;2022-12-13T11:53:51;0.90;99.90
7814;DHT22;3952;48.364;16.022;2022-12-13T11:56:25;0.90;99.90
7814;DHT22;3952;48.364;16.022;2022-12-13T11:59:01;1.00;99.90
7814;DHT22;3952;48.364;16.022;2022-12-13T12:01:34;1.00;99.90
7814;DHT22;3952;48.364;16.022;2022-12-13T12:04:11;1.00;99.90
7814;DHT22;3952;48.364;16.022;2022-12-13T12:06:43;1.00;99.90
7814;DHT22;3952;48.364;16.022;2022-12-13T12:09:14;1.00;99.90
7814;DHT22;3952;48.364;16.022;2022-12-13T12:11:47;1.10;99.90
7814;DHT22;3952;48.364;16.022;2022-12-13T12:14:21;1.10;99.90
7814;DHT22;3952;48.364;16.022;2022-12-13T12:16:50;1.10;99.90
7814;DHT22;3952;48.364;16.022;2022-12-13T12:19:20;1.10;99.90
7814;DHT22;3952;48.364;16.022;2022-12-13T12:22:01;1.10;99.90
7814;DHT22;3952;48.364;16.022;2022-12-13T12:24:37;1.10;99.90
7814;DHT22;3952;48.364;16.022;2022-12-13T12:27:24;1.10;99.90
7814;DHT22;3952;48.364;16.022;2022-12-13T12:30:09;1.10;99.90
7814;DHT22;3952;48.364;16.022;2022-12-13T12:32:43;1.10;99.90
7814;DHT22;3952;48.364;16.022;2022-12-13T12:35:43;1.10;99.90
7814;DHT22;3952;48.364;16.022;2022-12-13T12:41:22;1.00;99.90
7814;DHT22;3952;48.364;16.022;2022-12-13T12:43:55;1.00;99.90
7814;DHT22;3952;48.364;16.022;2022-12-13T12:46:39;1.00;99.90
7814;DHT22;3952;48.364;16.022;2022-12-13T12:52:16;1.00;99.90
7814;DHT22;3952;48.364;16.022;2022-12-13T12:54:53;1.00;99.90
7814;DHT22;3952;48.364;16.022;2022-12-13T12:57:36;0.90;99.90
7814;DHT22;3952;48.364;16.022;2022-12-13T13:00:11;0.90;99.90
7814;DHT22;3952;48.364;16.022;2022-12-13T13:02:45;0.90;99.90
7814;DHT22;3952;48.364;16.022;2022-12-13T13:05:19;0.90;99.90
7814;DHT22;3952;48.364;16.022;2022-12-13T13:07:53;0.90;99.90
7814;DHT22;3952;48.364;16.022;2022-12-13T13:10:22;0.90;99.90
7814;DHT22;3952;48.364;16.022;2022-12-13T13:12:49;0.80;99.90
7814;DHT22;3952;48.364;16.022;2022-12-13T13:18:48;0.80;99.90
7814;DHT22;3952;48.364;16.022;2022-12-13T13:21:43;0.80;99.90
7814;DHT22;3952;48.364;16.022;2022-12-13T13:24:20;0.80;99.90
7814;DHT22;3952;48.364;16.022;2022-12-13T13:26:50;0.80;99.90
7814;DHT22;3952;48.364;16.022;2022-12-13T13:29:38;0.70;99.90
7814;DHT22;3952;48.364;16.022;2022-12-13T13:32:33;0.70;99.90
7814;DHT22;3952;48.364;16.022;2022-12-13T13:38:47;0.70;99.90
7814;DHT22;3952;48.364;16.022;2022-12-13T13:41:38;0.60;99.90
7814;DHT22;3952;48.364;16.022;2022-12-13T13:44:34;0.60;99.90
7814;DHT22;3952;48.364;16.022;2022-12-13T13:47:33;0.50;99.90
7814;DHT22;3952;48.364;16.022;2022-12-13T13:50:07;0.50;99.90
7814;DHT22;3952;48.364;16.022;2022-12-13T13:52:52;0.50;99.90
7814;DHT22;3952;48.364;16.022;2022-12-13T13:55:42;0.50;99.90
7814;DHT22;3952;48.364;16.022;2022-12-13T14:01:36;0.40;99.90
7814;DHT22;3952;48.364;16.022;2022-12-13T14:04:45;0.30;99.90
7814;DHT22;3952;48.364;16.022;2022-12-13T14:07:39;0.30;99.90
7814;DHT22;3952;48.364;16.022;2022-12-13T14:10:25;0.30;99.90
7814;DHT22;3952;48.364;16.022;2022-12-13T14:13:27;0.30;99.90
7814;DHT22;3952;48.364;16.022;2022-12-13T14:22:28;0.20;99.90
7814;DHT22;3952;48.364;16.022;2022-12-13T14:25:20;0.20;99.90
7814;DHT22;3952;48.364;16.022;2022-12-13T14:27:53;0.10;99.90
7814;DHT22;3952;48.364;16.022;2022-12-13T14:30:25;0.00;99.90
7814;DHT22;3952;48.364;16.022;2022-12-13T14:32:52;0.00;99.90
7814;DHT22;3952;48.364;16.022;2022-12-13T14:35:22;0.00;99.90
7814;DHT22;3952;48.364;16.022;2022-12-13T14:38:00;-0.10;99.90
7814;DHT22;3952;48.364;16.022;2022-12-13T14:40:30;-0.10;99.90
7814;DHT22;3952;48.364;16.022;2022-12-13T14:42:58;-0.10;99.90
7814;DHT22;3952;48.364;16.022;2022-12-13T14:45:28;-0.20;99.90
7814;DHT22;3952;48.364;16.022;2022-12-13T14:47:57;-0.20;99.90
7814;DHT22;3952;48.364;16.022;2022-12-13T14:50:27;-0.30;99.90
7814;DHT22;3952;48.364;16.022;2022-12-13T14:52:55;-0.30;99.90
7814;DHT22;3952;48.364;16.022;2022-12-13T14:55:26;-0.40;99.90
7814;DHT22;3952;48.364;16.022;2022-12-13T14:57:57;-0.30;99.90
7814;DHT22;3952;48.364;16.022;2022-12-13T15:00:31;-0.40;99.90
7814;DHT22;3952;48.364;16.022;2022-12-13T15:03:01;-0.40;99.90
7814;DHT22;3952;48.364;16.022;2022-12-13T15:05:32;-0.40;99.90
7814;DHT22;3952;48.364;16.022;2022-12-13T15:08:00;-0.50;99.90
7814;DHT22;3952;48.364;16.022;2022-12-13T15:10:32;-0.50;99.90
7814;DHT22;3952;48.364;16.022;2022-12-13T15:13:04;-0.60;99.90
7814;DHT22;3952;48.364;16.022;2022-12-13T15:15:35;-0.60;99.90
7814;DHT22;3952;48.364;16.022;2022-12-13T15:18:14;-0.60;99.90
7814;DHT22;3952;48.364;16.022;2022-12-13T15:20:42;-0.60;99.90
7814;DHT22;3952;48.364;16.022;2022-12-13T15:23:14;-0.70;99.90
7814;DHT22;3952;48.364;16.022;2022-12-13T15:25:45;-0.70;99.90
7814;DHT22;3952;48.364;16.022;2022-12-13T15:28:14;-0.70;99.90
7814;DHT22;3952;48.364;16.022;2022-12-13T15:30:44;-0.80;99.90
7814;DHT22;3952;48.364;16.022;2022-12-13T15:33:18;-0.80;99.90
7814;DHT22;3952;48.364;16.022;2022-12-13T15:35:49;-0.90;99.90
7814;DHT22;3952;48.364;16.022;2022-12-13T15:38:26;-0.90;99.90
7814;DHT22;3952;48.364;16.022;2022-12-13T15:40:53;-1.00;99.90
7814;DHT22;3952;48.364;16.022;2022-12-13T15:43:30;-1.00;99.90
7814;DHT22;3952;48.364;16.022;2022-12-13T15:45:59;-1.00;99.90
7814;DHT22;3952;48.364;16.022;2022-12-13T15:48:29;-1.00;99.90
7814;DHT22;3952;48.364;16.022;2022-12-13T15:51:06;-1.10;99.90
7814;DHT22;3952;48.364;16.022;2022-12-13T15:53:35;-1.10;99.90
7814;DHT22;3952;48.364;16.022;2022-12-13T15:56:28;-1.20;99.90
7814;DHT22;3952;48.364;16.022;2022-12-13T15:58:56;-1.20;99.90
7814;DHT22;3952;48.364;16.022;2022-12-13T16:01:25;-1.20;99.90
7814;DHT22;3952;48.364;16.022;2022-12-13T16:03:53;-1.20;99.90
7814;DHT22;3952;48.364;16.022;2022-12-13T16:06:22;-1.30;99.90
7814;DHT22;3952;48.364;16.022;2022-12-13T16:08:51;-1.30;99.90
7814;DHT22;3952;48.364;16.022;2022-12-13T16:11:28;-1.30;99.90
7814;DHT22;3952;48.364;16.022;2022-12-13T16:16:56;-1.30;99.90
7814;DHT22;3952;48.364;16.022;2022-12-13T16:19:30;-1.40;99.90
7814;DHT22;3952;48.364;16.022;2022-12-13T16:21:58;-1.40;99.90
7814;DHT22;3952;48.364;16.022;2022-12-13T16:24:25;-1.40;99.90
7814;DHT22;3952;48.364;16.022;2022-12-13T16:26:53;-1.40;99.90
7814;DHT22;3952;48.364;16.022;2022-12-13T16:29:20;-1.50;99.90
7814;DHT22;3952;48.364;16.022;2022-12-13T16:31:48;-1.40;99.90
7814;DHT22;3952;48.364;16.022;2022-12-13T16:34:15;-1.50;99.90
7814;DHT22;3952;48.364;16.022;2022-12-13T16:36:44;-1.50;99.90
7814;DHT22;3952;48.364;16.022;2022-12-13T16:39:12;-1.50;99.90
7814;DHT22;3952;48.364;16.022;2022-12-13T16:41:43;-1.50;99.90
7814;DHT22;3952;48.364;16.022;2022-12-13T16:44:19;-1.50;99.90